sensor_id;sensor_type;location;lat;lon;timestamp;pressure;altitude;pressure_sealevel;temperature;humidity
71145;BME280;58812;47.698;17.726;2023-04-06T00:00:50;100520.75;;;0.91;60.55
71145;BME280;58812;47.698;17.726;2023-04-06T00:03:15;100522.59;;;1.06;63.77
71145;BME280;58812;47.698;17.726;2023-04-06T00:05:41;100516.78;;;0.83;59.22
71145;BME280;58812;47.698;17.726;2023-04-06T00:08:07;100512.63;;;0.78;59.36
71145;BME280;58812;47.698;17.726;2023-04-06T00:10:32;100517.50;;;0.86;63.39
71145;BME280;58812;47.698;17.726;2023-04-06T00:12:58;100508.53;;;0.90;61.95
71145;BME280;58812;47.698;17.726;2023-04-06T00:15:24;100515.41;;;0.75;59.35
71145;BME280;58812;47.698;17.726;2023-04-06T00:17:50;100507.13;;;0.83;60.78
71145;BME280;58812;47.698;17.726;2023-04-06T00:20:16;100516.66;;;0.86;61.48
71145;BME280;58812;47.698;17.726;2023-04-06T00:22:42;100512.47;;;0.82;60.68
71145;BME280;58812;47.698;17.726;2023-04-06T00:25:08;100506.56;;;0.94;60.00
71145;BME280;58812;47.698;17.726;2023-04-06T00:27:35;100498.94;;;1.05;60.55
71145;BME280;58812;47.698;17.726;2023-04-06T00:30:01;100503.28;;;1.06;62.30
71145;BME280;58812;47.698;17.726;2023-04-06T00:32:26;100501.03;;;1.16;65.22
71145;BME280;58812;47.698;17.726;2023-04-06T00:34:52;100503.16;;;0.92;60.89
71145;BME280;58812;47.698;17.726;2023-04-06T00:37:18;100503.38;;;0.87;59.72
71145;BME280;58812;47.698;17.726;2023-04-06T00:39:44;100489.13;;;0.91;66.66
71145;BME280;58812;47.698;17.726;2023-04-06T00:42:13;100502.00;;;0.80;60.83
71145;BME280;58812;47.698;17.726;2023-04-06T00:44:42;100496.50;;;0.67;59.50
71145;BME280;58812;47.698;17.726;2023-04-06T00:47:08;100495.50;;;0.70;59.85
71145;BME280;58812;47.698;17.726;2023-04-06T00:49:34;100498.31;;;1.00;61.51
71145;BME280;58812;47.698;17.726;2023-04-06T00:52:00;100500.22;;;0.80;62.59
71145;BME280;58812;47.698;17.726;2023-04-06T00:54:26;100496.41;;;1.52;74.51
71145;BME280;58812;47.698;17.726;2023-04-06T00:56:52;100497.97;;;0.90;61.36
71145;BME280;58812;47.698;17.726;2023-04-06T00:59:17;100498.75;;;0.75;60.95
71145;BME280;58812;47.698;17.726;2023-04-06T01:01:43;100490.94;;;0.73;62.95
71145;BME280;58812;47.698;17.726;2023-04-06T01:04:08;100492.94;;;0.68;62.20
71145;BME280;58812;47.698;17.726;2023-04-06T01:06:34;100489.69;;;0.63;62.19
71145;BME280;58812;47.698;17.726;2023-04-06T01:08:59;100488.00;;;0.62;64.15
71145;BME280;58812;47.698;17.726;2023-04-06T01:11:25;100495.13;;;0.60;63.84
71145;BME280;58812;47.698;17.726;2023-04-06T01:13:51;100484.34;;;0.47;62.11
71145;BME280;58812;47.698;17.726;2023-04-06T01:16:17;100486.12;;;0.64;68.24
71145;BME280;58812;47.698;17.726;2023-04-06T01:18:42;100489.06;;;0.75;66.99
71145;BME280;58812;47.698;17.726;2023-04-06T01:21:08;100494.00;;;0.82;65.03
71145;BME280;58812;47.698;17.726;2023-04-06T01:23:40;100488.00;;;0.62;62.96
71145;BME280;58812;47.698;17.726;2023-04-06T01:26:05;100481.63;;;0.84;63.94
71145;BME280;58812;47.698;17.726;2023-04-06T01:28:31;100484.91;;;0.54;63.29
71145;BME280;58812;47.698;17.726;2023-04-06T01:30:56;100481.16;;;0.58;64.77
71145;BME280;58812;47.698;17.726;2023-04-06T01:33:21;100483.34;;;0.50;62.91
71145;BME280;58812;47.698;17.726;2023-04-06T01:35:47;100473.56;;;0.69;63.54
71145;BME280;58812;47.698;17.726;2023-04-06T01:38:12;100480.16;;;0.61;63.43
71145;BME280;58812;47.698;17.726;2023-04-06T01:40:38;100477.25;;;0.83;66.82
71145;BME280;58812;47.698;17.726;2023-04-06T01:43:03;100483.12;;;0.55;63.29
71145;BME280;58812;47.698;17.726;2023-04-06T01:45:28;100473.75;;;0.66;68.12
71145;BME280;58812;47.698;17.726;2023-04-06T01:47:54;100474.00;;;0.95;70.69
71145;BME280;58812;47.698;17.726;2023-04-06T01:50:20;100473.12;;;0.94;69.46
71145;BME280;58812;47.698;17.726;2023-04-06T01:52:45;100480.78;;;0.83;69.65
71145;BME280;58812;47.698;17.726;2023-04-06T01:55:10;100475.09;;;0.91;71.17
71145;BME280;58812;47.698;17.726;2023-04-06T01:57:36;100477.87;;;0.88;67.66
71145;BME280;58812;47.698;17.726;2023-04-06T02:00:01;100479.56;;;0.56;63.10
71145;BME280;58812;47.698;17.726;2023-04-06T02:02:27;100474.41;;;1.20;76.52
71145;BME280;58812;47.698;17.726;2023-04-06T02:04:52;100482.28;;;1.38;72.68
71145;BME280;58812;47.698;17.726;2023-04-06T02:07:18;100470.06;;;0.86;68.20
71145;BME280;58812;47.698;17.726;2023-04-06T02:09:43;100480.72;;;1.33;73.89
71145;BME280;58812;47.698;17.726;2023-04-06T02:12:09;100476.81;;;1.41;75.93
71145;BME280;58812;47.698;17.726;2023-04-06T02:14:34;100475.28;;;0.53;65.28
71145;BME280;58812;47.698;17.726;2023-04-06T02:16:59;100474.81;;;0.45;67.27
71145;BME280;58812;47.698;17.726;2023-04-06T02:19:25;100471.56;;;0.40;67.74
71145;BME280;58812;47.698;17.726;2023-04-06T02:21:51;100469.75;;;0.23;67.22
71145;BME280;58812;47.698;17.726;2023-04-06T02:24:16;100473.44;;;0.38;67.08
71145;BME280;58812;47.698;17.726;2023-04-06T02:26:41;100466.28;;;0.22;69.62
71145;BME280;58812;47.698;17.726;2023-04-06T02:29:07;100468.84;;;0.07;66.51
71145;BME280;58812;47.698;17.726;2023-04-06T02:31:32;100462.91;;;0.38;72.71
71145;BME280;58812;47.698;17.726;2023-04-06T02:33:58;100469.53;;;0.10;66.98
71145;BME280;58812;47.698;17.726;2023-04-06T02:36:23;100465.53;;;0.38;71.25
71145;BME280;58812;47.698;17.726;2023-04-06T02:38:48;100468.84;;;0.41;69.58
71145;BME280;58812;47.698;17.726;2023-04-06T02:41:14;100453.03;;;0.07;67.12
71145;BME280;58812;47.698;17.726;2023-04-06T02:43:39;100456.91;;;0.34;70.65
71145;BME280;58812;47.698;17.726;2023-04-06T02:46:05;100456.44;;;0.09;69.70
71145;BME280;58812;47.698;17.726;2023-04-06T02:48:30;100460.06;;;-0.11;66.56
71145;BME280;58812;47.698;17.726;2023-04-06T02:50:56;100462.97;;;-0.17;67.33
71145;BME280;58812;47.698;17.726;2023-04-06T02:53:21;100456.28;;;-0.06;68.47
71145;BME280;58812;47.698;17.726;2023-04-06T02:55:46;100454.34;;;0.15;69.35
71145;BME280;58812;47.698;17.726;2023-04-06T02:58:12;100461.09;;;0.21;69.41
71145;BME280;58812;47.698;17.726;2023-04-06T03:00:37;100458.84;;;0.13;68.61
71145;BME280;58812;47.698;17.726;2023-04-06T03:03:03;100449.31;;;0.11;67.22
71145;BME280;58812;47.698;17.726;2023-04-06T03:05:28;100450.16;;;0.11;70.41
71145;BME280;58812;47.698;17.726;2023-04-06T03:07:53;100459.47;;;0.18;68.63
71145;BME280;58812;47.698;17.726;2023-04-06T03:10:19;100447.78;;;0.07;69.79
71145;BME280;58812;47.698;17.726;2023-04-06T03:12:45;100456.66;;;0.04;67.69
71145;BME280;58812;47.698;17.726;2023-04-06T03:15:10;100456.97;;;-0.02;67.99
71145;BME280;58812;47.698;17.726;2023-04-06T03:17:36;100453.72;;;0.10;67.55
71145;BME280;58812;47.698;17.726;2023-04-06T03:20:02;100458.88;;;0.31;74.12
71145;BME280;58812;47.698;17.726;2023-04-06T03:22:28;100451.56;;;0.53;71.77
71145;BME280;58812;47.698;17.726;2023-04-06T03:24:54;100457.31;;;0.44;68.37
71145;BME280;58812;47.698;17.726;2023-04-06T03:27:19;100461.13;;;0.56;75.06
71145;BME280;58812;47.698;17.726;2023-04-06T03:29:45;100463.97;;;0.51;69.30
71145;BME280;58812;47.698;17.726;2023-04-06T03:32:11;100458.69;;;0.51;71.04
71145;BME280;58812;47.698;17.726;2023-04-06T03:34:37;100462.28;;;0.50;71.12
71145;BME280;58812;47.698;17.726;2023-04-06T03:37:03;100461.97;;;0.56;69.93
71145;BME280;58812;47.698;17.726;2023-04-06T03:39:28;100466.28;;;0.22;66.68
71145;BME280;58812;47.698;17.726;2023-04-06T03:41:53;100466.88;;;0.10;66.39
71145;BME280;58812;47.698;17.726;2023-04-06T03:44:19;100470.84;;;0.02;66.76
71145;BME280;58812;47.698;17.726;2023-04-06T03:46:44;100458.75;;;-0.03;67.44
71145;BME280;58812;47.698;17.726;2023-04-06T03:49:10;100467.69;;;0.12;67.71
71145;BME280;58812;47.698;17.726;2023-04-06T03:51:35;100457.69;;;0.19;74.77
71145;BME280;58812;47.698;17.726;2023-04-06T03:54:01;100457.72;;;-0.17;66.82
71145;BME280;58812;47.698;17.726;2023-04-06T03:56:26;100459.75;;;-0.24;66.06
71145;BME280;58812;47.698;17.726;2023-04-06T03:58:52;100459.47;;;-0.18;67.75
71145;BME280;58812;47.698;17.726;2023-04-06T04:01:17;100460.84;;;0.08;72.30
71145;BME280;58812;47.698;17.726;2023-04-06T04:03:45;100466.25;;;0.05;70.07
71145;BME280;58812;47.698;17.726;2023-04-06T04:06:11;100453.94;;;-0.12;68.75
71145;BME280;58812;47.698;17.726;2023-04-06T04:08:36;100458.91;;;-0.24;70.50
71145;BME280;58812;47.698;17.726;2023-04-06T04:11:02;100463.84;;;-0.36;68.98
71145;BME280;58812;47.698;17.726;2023-04-06T04:13:27;100465.84;;;-0.41;69.98
71145;BME280;58812;47.698;17.726;2023-04-06T04:15:53;100464.09;;;-0.59;69.32
71145;BME280;58812;47.698;17.726;2023-04-06T04:18:18;100458.31;;;-0.48;70.63
71145;BME280;58812;47.698;17.726;2023-04-06T04:20:44;100457.34;;;-0.10;73.64
71145;BME280;58812;47.698;17.726;2023-04-06T04:23:10;100457.50;;;-0.32;70.41
71145;BME280;58812;47.698;17.726;2023-04-06T04:25:35;100460.06;;;-0.49;69.48
71145;BME280;58812;47.698;17.726;2023-04-06T04:28:01;100461.28;;;-0.56;69.39
71145;BME280;58812;47.698;17.726;2023-04-06T04:30:27;100463.34;;;-0.44;72.27
71145;BME280;58812;47.698;17.726;2023-04-06T04:32:52;100465.22;;;-0.46;71.52
71145;BME280;58812;47.698;17.726;2023-04-06T04:35:17;100467.31;;;-0.54;70.68
71145;BME280;58812;47.698;17.726;2023-04-06T04:37:43;100464.56;;;-0.51;70.82
71145;BME280;58812;47.698;17.726;2023-04-06T04:40:09;100470.47;;;-0.46;71.99
71145;BME280;58812;47.698;17.726;2023-04-06T04:42:35;100466.91;;;-0.45;70.92
71145;BME280;58812;47.698;17.726;2023-04-06T04:45:00;100472.81;;;-0.59;70.11
71145;BME280;58812;47.698;17.726;2023-04-06T04:47:25;100470.09;;;-0.38;71.94
71145;BME280;58812;47.698;17.726;2023-04-06T04:49:51;100464.72;;;-0.35;72.14
71145;BME280;58812;47.698;17.726;2023-04-06T04:52:16;100467.69;;;-0.07;73.53
71145;BME280;58812;47.698;17.726;2023-04-06T04:54:42;100471.50;;;0.24;76.63
71145;BME280;58812;47.698;17.726;2023-04-06T04:57:07;100479.62;;;0.19;77.41
71145;BME280;58812;47.698;17.726;2023-04-06T04:59:34;100466.44;;;0.19;77.23
71145;BME280;58812;47.698;17.726;2023-04-06T05:02:00;100467.81;;;0.09;72.40
71145;BME280;58812;47.698;17.726;2023-04-06T05:04:25;100479.09;;;0.30;72.86
71145;BME280;58812;47.698;17.726;2023-04-06T05:07:02;100462.03;;;0.20;70.83
71145;BME280;58812;47.698;17.726;2023-04-06T05:09:29;100463.50;;;0.25;71.25
71145;BME280;58812;47.698;17.726;2023-04-06T05:11:55;100475.13;;;0.39;69.05
71145;BME280;58812;47.698;17.726;2023-04-06T05:14:21;100475.25;;;0.70;74.11
71145;BME280;58812;47.698;17.726;2023-04-06T05:16:46;100475.75;;;0.61;69.91
71145;BME280;58812;47.698;17.726;2023-04-06T05:19:12;100476.38;;;0.49;68.03
71145;BME280;58812;47.698;17.726;2023-04-06T05:21:37;100473.25;;;0.58;68.38
71145;BME280;58812;47.698;17.726;2023-04-06T05:24:02;100467.16;;;0.58;67.98
71145;BME280;58812;47.698;17.726;2023-04-06T05:26:28;100467.37;;;0.53;67.64
71145;BME280;58812;47.698;17.726;2023-04-06T05:28:53;100471.88;;;0.68;67.42
71145;BME280;58812;47.698;17.726;2023-04-06T05:31:19;100468.69;;;0.79;66.74
71145;BME280;58812;47.698;17.726;2023-04-06T05:33:45;100467.19;;;0.91;66.84
71145;BME280;58812;47.698;17.726;2023-04-06T05:36:11;100472.81;;;1.00;66.59
71145;BME280;58812;47.698;17.726;2023-04-06T05:38:37;100473.84;;;1.47;67.04
71145;BME280;58812;47.698;17.726;2023-04-06T05:41:02;100465.94;;;1.47;64.76
71145;BME280;58812;47.698;17.726;2023-04-06T05:43:28;100469.84;;;1.71;63.90
71145;BME280;58812;47.698;17.726;2023-04-06T05:45:53;100469.66;;;2.22;65.82
71145;BME280;58812;47.698;17.726;2023-04-06T05:48:18;100467.41;;;2.30;64.00
71145;BME280;58812;47.698;17.726;2023-04-06T05:50:48;100467.87;;;2.06;61.57
71145;BME280;58812;47.698;17.726;2023-04-06T05:53:14;100467.34;;;2.90;65.63
71145;BME280;58812;47.698;17.726;2023-04-06T05:55:41;100461.84;;;2.04;61.56
71145;BME280;58812;47.698;17.726;2023-04-06T05:58:06;100465.34;;;2.35;60.75
71145;BME280;58812;47.698;17.726;2023-04-06T06:00:32;100467.75;;;2.98;62.57
71145;BME280;58812;47.698;17.726;2023-04-06T06:02:57;100466.59;;;2.88;59.01
71145;BME280;58812;47.698;17.726;2023-04-06T06:05:23;100455.94;;;3.18;62.48
71145;BME280;58812;47.698;17.726;2023-04-06T06:07:48;100459.81;;;3.41;59.35
71145;BME280;58812;47.698;17.726;2023-04-06T06:10:14;100464.31;;;3.94;58.64
71145;BME280;58812;47.698;17.726;2023-04-06T06:12:39;100456.63;;;3.21;57.56
71145;BME280;58812;47.698;17.726;2023-04-06T06:15:05;100451.41;;;3.34;59.48
71145;BME280;58812;47.698;17.726;2023-04-06T06:17:31;100454.06;;;2.91;57.23
71145;BME280;58812;47.698;17.726;2023-04-06T06:19:56;100444.22;;;3.36;56.92
71145;BME280;58812;47.698;17.726;2023-04-06T06:22:22;100453.06;;;4.18;57.22
71145;BME280;58812;47.698;17.726;2023-04-06T06:24:47;100450.59;;;3.75;56.70
71145;BME280;58812;47.698;17.726;2023-04-06T06:27:13;100454.41;;;3.57;57.15
71145;BME280;58812;47.698;17.726;2023-04-06T06:29:38;100445.78;;;3.94;59.69
71145;BME280;58812;47.698;17.726;2023-04-06T06:32:04;100449.28;;;3.68;55.72
71145;BME280;58812;47.698;17.726;2023-04-06T06:34:29;100441.69;;;3.76;56.25
71145;BME280;58812;47.698;17.726;2023-04-06T06:36:55;100439.94;;;4.81;57.30
71145;BME280;58812;47.698;17.726;2023-04-06T06:39:21;100442.66;;;4.42;54.05
71145;BME280;58812;47.698;17.726;2023-04-06T06:41:46;100446.97;;;4.30;52.84
71145;BME280;58812;47.698;17.726;2023-04-06T06:44:11;100440.59;;;4.33;52.66
71145;BME280;58812;47.698;17.726;2023-04-06T06:46:37;100445.75;;;5.25;57.56
71145;BME280;58812;47.698;17.726;2023-04-06T06:49:02;100435.31;;;5.47;53.88
71145;BME280;58812;47.698;17.726;2023-04-06T06:51:28;100431.31;;;5.03;52.72
71145;BME280;58812;47.698;17.726;2023-04-06T06:53:53;100431.59;;;5.37;50.27
71145;BME280;58812;47.698;17.726;2023-04-06T06:56:19;100437.69;;;5.14;50.72
71145;BME280;58812;47.698;17.726;2023-04-06T06:58:45;100438.16;;;6.18;51.85
71145;BME280;58812;47.698;17.726;2023-04-06T07:01:10;100436.47;;;5.80;48.75
71145;BME280;58812;47.698;17.726;2023-04-06T07:03:35;100432.44;;;5.87;49.87
71145;BME280;58812;47.698;17.726;2023-04-06T07:06:01;100436.00;;;5.99;48.19
71145;BME280;58812;47.698;17.726;2023-04-06T07:08:26;100436.56;;;5.54;48.68
71145;BME280;58812;47.698;17.726;2023-04-06T07:10:52;100440.19;;;6.14;55.68
71145;BME280;58812;47.698;17.726;2023-04-06T07:13:19;100434.44;;;5.59;48.71
71145;BME280;58812;47.698;17.726;2023-04-06T07:15:51;100436.03;;;5.49;48.20
71145;BME280;58812;47.698;17.726;2023-04-06T07:18:17;100441.13;;;5.89;47.68
71145;BME280;58812;47.698;17.726;2023-04-06T07:20:43;100426.09;;;5.77;48.10
71145;BME280;58812;47.698;17.726;2023-04-06T07:23:09;100437.50;;;6.38;48.24
71145;BME280;58812;47.698;17.726;2023-04-06T07:25:34;100431.97;;;6.06;48.17
71145;BME280;58812;47.698;17.726;2023-04-06T07:28:00;100440.50;;;5.49;49.35
71145;BME280;58812;47.698;17.726;2023-04-06T07:30:26;100440.53;;;5.73;47.71
71145;BME280;58812;47.698;17.726;2023-04-06T07:32:53;100439.53;;;5.99;46.86
71145;BME280;58812;47.698;17.726;2023-04-06T07:35:20;100438.19;;;6.64;46.09
71145;BME280;58812;47.698;17.726;2023-04-06T07:37:46;100441.78;;;7.09;47.73
71145;BME280;58812;47.698;17.726;2023-04-06T07:40:11;100435.94;;;6.93;46.51
71145;BME280;58812;47.698;17.726;2023-04-06T07:42:37;100436.16;;;6.32;45.82
71145;BME280;58812;47.698;17.726;2023-04-06T07:45:02;100429.09;;;7.13;44.97
71145;BME280;58812;47.698;17.726;2023-04-06T07:47:28;100427.03;;;6.12;45.47
71145;BME280;58812;47.698;17.726;2023-04-06T07:49:54;100437.81;;;5.98;45.28
71145;BME280;58812;47.698;17.726;2023-04-06T07:52:21;100419.16;;;6.35;45.79
71145;BME280;58812;47.698;17.726;2023-04-06T07:54:46;100416.47;;;6.70;44.89
71145;BME280;58812;47.698;17.726;2023-04-06T07:57:13;100427.16;;;6.57;46.47
71145;BME280;58812;47.698;17.726;2023-04-06T07:59:38;100410.75;;;6.63;45.25
71145;BME280;58812;47.698;17.726;2023-04-06T08:02:04;100419.50;;;7.10;44.95
71145;BME280;58812;47.698;17.726;2023-04-06T08:04:30;100434.28;;;7.26;43.40
71145;BME280;58812;47.698;17.726;2023-04-06T08:06:55;100426.00;;;6.73;43.71
71145;BME280;58812;47.698;17.726;2023-04-06T08:09:21;100414.44;;;7.18;42.40
71145;BME280;58812;47.698;17.726;2023-04-06T08:11:46;100423.37;;;7.40;41.65
71145;BME280;58812;47.698;17.726;2023-04-06T08:14:14;100414.19;;;7.10;41.25
71145;BME280;58812;47.698;17.726;2023-04-06T08:16:40;100415.31;;;6.50;41.87
71145;BME280;58812;47.698;17.726;2023-04-06T08:19:05;100415.16;;;7.09;41.50
71145;BME280;58812;47.698;17.726;2023-04-06T08:21:34;100409.09;;;6.96;41.14
71145;BME280;58812;47.698;17.726;2023-04-06T08:24:00;100407.66;;;7.48;40.25
71145;BME280;58812;47.698;17.726;2023-04-06T08:26:26;100421.41;;;7.64;39.65
71145;BME280;58812;47.698;17.726;2023-04-06T08:28:52;100403.53;;;6.99;40.71
71145;BME280;58812;47.698;17.726;2023-04-06T08:31:17;100410.81;;;7.08;40.82
71145;BME280;58812;47.698;17.726;2023-04-06T08:33:42;100405.22;;;7.34;41.00
71145;BME280;58812;47.698;17.726;2023-04-06T08:36:10;100406.66;;;7.60;41.39
71145;BME280;58812;47.698;17.726;2023-04-06T08:38:36;100398.97;;;7.23;40.39
71145;BME280;58812;47.698;17.726;2023-04-06T08:41:09;100405.12;;;7.35;40.27
71145;BME280;58812;47.698;17.726;2023-04-06T08:43:43;100407.09;;;7.76;38.87
71145;BME280;58812;47.698;17.726;2023-04-06T08:46:10;100394.47;;;7.02;38.71
71145;BME280;58812;47.698;17.726;2023-04-06T08:48:37;100388.53;;;7.43;38.42
71145;BME280;58812;47.698;17.726;2023-04-06T08:51:03;100392.50;;;7.92;37.68
71145;BME280;58812;47.698;17.726;2023-04-06T08:53:29;100404.50;;;7.20;38.27
71145;BME280;58812;47.698;17.726;2023-04-06T08:55:56;100402.56;;;7.22;38.46
71145;BME280;58812;47.698;17.726;2023-04-06T08:58:23;100407.41;;;7.29;38.86
71145;BME280;58812;47.698;17.726;2023-04-06T09:00:50;100402.25;;;7.70;39.33
71145;BME280;58812;47.698;17.726;2023-04-06T09:03:18;100394.38;;;7.80;38.82
71145;BME280;58812;47.698;17.726;2023-04-06T09:05:45;100398.72;;;7.81;38.37
71145;BME280;58812;47.698;17.726;2023-04-06T09:08:11;100392.03;;;7.87;38.26
71145;BME280;58812;47.698;17.726;2023-04-06T09:10:40;100375.19;;;7.86;36.89
71145;BME280;58812;47.698;17.726;2023-04-06T09:13:07;100395.03;;;8.37;36.54
71145;BME280;58812;47.698;17.726;2023-04-06T09:15:33;100390.00;;;8.11;37.19
71145;BME280;58812;47.698;17.726;2023-04-06T09:17:59;100393.13;;;8.69;36.48
71145;BME280;58812;47.698;17.726;2023-04-06T09:20:25;100401.78;;;8.41;36.43
71145;BME280;58812;47.698;17.726;2023-04-06T09:22:51;100390.00;;;8.64;36.64
71145;BME280;58812;47.698;17.726;2023-04-06T09:25:24;100394.41;;;9.36;36.30
71145;BME280;58812;47.698;17.726;2023-04-06T09:28:02;100389.94;;;8.75;37.49
71145;BME280;58812;47.698;17.726;2023-04-06T09:30:28;100389.16;;;8.85;35.80
71145;BME280;58812;47.698;17.726;2023-04-06T09:32:55;100377.41;;;8.34;36.60
71145;BME280;58812;47.698;17.726;2023-04-06T09:35:22;100382.47;;;9.00;34.97
71145;BME280;58812;47.698;17.726;2023-04-06T09:37:49;100384.25;;;9.20;35.58
71145;BME280;58812;47.698;17.726;2023-04-06T09:40:15;100385.28;;;8.98;35.92
71145;BME280;58812;47.698;17.726;2023-04-06T09:42:45;100372.09;;;9.06;35.43
71145;BME280;58812;47.698;17.726;2023-04-06T09:45:11;100390.22;;;8.72;35.81
71145;BME280;58812;47.698;17.726;2023-04-06T09:47:37;100383.94;;;9.14;34.89
71145;BME280;58812;47.698;17.726;2023-04-06T09:50:05;100378.09;;;8.68;36.29
71145;BME280;58812;47.698;17.726;2023-04-06T09:52:38;100378.28;;;9.07;36.05
71145;BME280;58812;47.698;17.726;2023-04-06T09:55:05;100379.09;;;8.35;36.61
71145;BME280;58812;47.698;17.726;2023-04-06T09:57:41;100373.91;;;8.75;35.87
71145;BME280;58812;47.698;17.726;2023-04-06T10:00:11;100395.63;;;8.61;36.68
71145;BME280;58812;47.698;17.726;2023-04-06T10:02:56;100374.66;;;9.18;37.32
71145;BME280;58812;47.698;17.726;2023-04-06T10:05:52;100369.97;;;9.31;36.68
71145;BME280;58812;47.698;17.726;2023-04-06T10:08:18;100360.25;;;8.99;36.88
71145;BME280;58812;47.698;17.726;2023-04-06T10:10:46;100369.75;;;9.63;36.27
71145;BME280;58812;47.698;17.726;2023-04-06T10:13:12;100361.75;;;10.21;36.46
71145;BME280;58812;47.698;17.726;2023-04-06T10:15:38;100350.59;;;10.55;36.56
71145;BME280;58812;47.698;17.726;2023-04-06T10:18:05;100351.06;;;10.11;35.49
71145;BME280;58812;47.698;17.726;2023-04-06T10:20:52;100363.28;;;9.75;36.21
71145;BME280;58812;47.698;17.726;2023-04-06T10:26:29;100342.16;;;9.53;35.29
71145;BME280;58812;47.698;17.726;2023-04-06T10:29:02;100343.19;;;8.81;36.86
71145;BME280;58812;47.698;17.726;2023-04-06T10:31:28;100338.81;;;9.10;36.31
71145;BME280;58812;47.698;17.726;2023-04-06T10:33:58;100333.97;;;8.64;36.52
71145;BME280;58812;47.698;17.726;2023-04-06T10:36:25;100332.63;;;9.10;35.51
71145;BME280;58812;47.698;17.726;2023-04-06T10:38:59;100324.97;;;9.46;34.92
71145;BME280;58812;47.698;17.726;2023-04-06T10:41:33;100331.22;;;9.85;36.44
71145;BME280;58812;47.698;17.726;2023-04-06T10:43:59;100347.38;;;10.12;35.15
71145;BME280;58812;47.698;17.726;2023-04-06T10:46:29;100322.19;;;9.57;34.44
71145;BME280;58812;47.698;17.726;2023-04-06T10:48:55;100325.84;;;9.56;34.34
71145;BME280;58812;47.698;17.726;2023-04-06T10:51:26;100327.97;;;10.01;33.35
71145;BME280;58812;47.698;17.726;2023-04-06T10:53:53;100324.13;;;9.45;33.70
71145;BME280;58812;47.698;17.726;2023-04-06T10:56:22;100309.38;;;9.01;33.73
71145;BME280;58812;47.698;17.726;2023-04-06T10:58:50;100313.59;;;8.94;34.83
71145;BME280;58812;47.698;17.726;2023-04-06T11:01:17;100322.75;;;9.60;34.24
71145;BME280;58812;47.698;17.726;2023-04-06T11:03:47;100313.09;;;9.09;33.93
71145;BME280;58812;47.698;17.726;2023-04-06T11:06:20;100312.97;;;9.21;35.13
71145;BME280;58812;47.698;17.726;2023-04-06T11:08:46;100309.75;;;8.87;35.18
71145;BME280;58812;47.698;17.726;2023-04-06T11:11:16;100307.03;;;8.77;35.44
71145;BME280;58812;47.698;17.726;2023-04-06T11:13:50;100302.84;;;8.74;36.02
71145;BME280;58812;47.698;17.726;2023-04-06T11:16:23;100304.91;;;9.01;36.90
71145;BME280;58812;47.698;17.726;2023-04-06T11:18:51;100300.78;;;8.88;36.83
71145;BME280;58812;47.698;17.726;2023-04-06T11:21:17;100295.97;;;8.51;36.35
71145;BME280;58812;47.698;17.726;2023-04-06T11:23:43;100296.06;;;8.70;37.23
71145;BME280;58812;47.698;17.726;2023-04-06T11:26:12;100299.62;;;8.80;36.44
71145;BME280;58812;47.698;17.726;2023-04-06T11:28:40;100293.91;;;8.54;35.40
71145;BME280;58812;47.698;17.726;2023-04-06T11:31:07;100291.41;;;8.42;35.16
71145;BME280;58812;47.698;17.726;2023-04-06T11:33:38;100289.56;;;8.94;36.94
71145;BME280;58812;47.698;17.726;2023-04-06T11:36:04;100290.97;;;9.77;34.34
71145;BME280;58812;47.698;17.726;2023-04-06T11:38:30;100292.38;;;9.90;34.06
71145;BME280;58812;47.698;17.726;2023-04-06T11:40:56;100290.09;;;10.15;34.28
71145;BME280;58812;47.698;17.726;2023-04-06T11:43:31;100286.03;;;9.72;36.39
71145;BME280;58812;47.698;17.726;2023-04-06T11:46:03;100283.91;;;9.66;35.45
71145;BME280;58812;47.698;17.726;2023-04-06T11:48:29;100290.09;;;9.96;35.24
71145;BME280;58812;47.698;17.726;2023-04-06T11:50:58;100276.47;;;9.50;35.08
71145;BME280;58812;47.698;17.726;2023-04-06T11:53:29;100284.47;;;9.41;35.06
71145;BME280;58812;47.698;17.726;2023-04-06T11:55:55;100264.66;;;9.82;34.83
71145;BME280;58812;47.698;17.726;2023-04-06T11:58:21;100259.69;;;10.26;34.11
71145;BME280;58812;47.698;17.726;2023-04-06T12:00:46;100260.53;;;10.26;34.68
71145;BME280;58812;47.698;17.726;2023-04-06T12:03:12;100267.87;;;10.99;33.81
71145;BME280;58812;47.698;17.726;2023-04-06T12:05:38;100256.03;;;10.64;32.56
71145;BME280;58812;47.698;17.726;2023-04-06T12:08:04;100257.87;;;10.26;32.88
71145;BME280;58812;47.698;17.726;2023-04-06T12:10:29;100256.78;;;11.11;32.37
71145;BME280;58812;47.698;17.726;2023-04-06T12:12:55;100247.97;;;10.36;33.30
71145;BME280;58812;47.698;17.726;2023-04-06T12:15:20;100247.56;;;10.12;33.51
71145;BME280;58812;47.698;17.726;2023-04-06T12:17:46;100257.63;;;9.81;33.82
71145;BME280;58812;47.698;17.726;2023-04-06T12:20:12;100241.34;;;10.31;33.39
71145;BME280;58812;47.698;17.726;2023-04-06T12:22:38;100259.94;;;10.23;33.75
71145;BME280;58812;47.698;17.726;2023-04-06T12:25:04;100241.09;;;10.24;34.04
71145;BME280;58812;47.698;17.726;2023-04-06T12:27:32;100241.69;;;9.99;33.61
71145;BME280;58812;47.698;17.726;2023-04-06T12:29:57;100237.22;;;9.70;34.05
71145;BME280;58812;47.698;17.726;2023-04-06T12:32:22;100244.25;;;9.71;33.69
71145;BME280;58812;47.698;17.726;2023-04-06T12:34:48;100235.75;;;10.24;33.85
71145;BME280;58812;47.698;17.726;2023-04-06T12:37:13;100231.16;;;10.81;32.75
71145;BME280;58812;47.698;17.726;2023-04-06T12:39:39;100233.72;;;11.01;33.37
71145;BME280;58812;47.698;17.726;2023-04-06T12:42:04;100235.84;;;10.79;32.84
71145;BME280;58812;47.698;17.726;2023-04-06T12:44:30;100232.22;;;10.61;33.16
71145;BME280;58812;47.698;17.726;2023-04-06T12:46:55;100234.19;;;10.68;34.04